sensor_id;sensor_type;location;lat;lon;timestamp;temperature;humidity
34829;DHT22;21042;47.620;12.188;2023-11-19T00:01:34;4.50;99.90
34829;DHT22;21042;47.620;12.188;2023-11-19T00:04:02;4.60;99.90
34829;DHT22;21042;47.620;12.188;2023-11-19T00:06:31;4.60;99.90
34829;DHT22;21042;47.620;12.188;2023-11-19T00:08:58;4.60;99.90
34829;DHT22;21042;47.620;12.188;2023-11-19T00:11:25;4.60;99.90
34829;DHT22;21042;47.620;12.188;2023-11-19T00:13:52;4.70;99.90
34829;DHT22;21042;47.620;12.188;2023-11-19T00:16:19;4.70;99.90
34829;DHT22;21042;47.620;12.188;2023-11-19T00:18:45;4.70;99.90
34829;DHT22;21042;47.620;12.188;2023-11-19T00:21:12;4.70;99.90
34829;DHT22;21042;47.620;12.188;2023-11-19T00:23:39;4.80;99.90
34829;DHT22;21042;47.620;12.188;2023-11-19T00:26:06;4.80;99.90
34829;DHT22;21042;47.620;12.188;2023-11-19T00:28:33;4.80;99.90
34829;DHT22;21042;47.620;12.188;2023-11-19T00:31:01;4.80;99.90
34829;DHT22;21042;47.620;12.188;2023-11-19T00:33:28;4.80;99.90
34829;DHT22;21042;47.620;12.188;2023-11-19T00:35:55;4.70;99.90
34829;DHT22;21042;47.620;12.188;2023-11-19T00:38:22;4.70;99.90
34829;DHT22;21042;47.620;12.188;2023-11-19T00:40:49;4.80;99.90
34829;DHT22;21042;47.620;12.188;2023-11-19T00:43:15;4.80;99.90
34829;DHT22;21042;47.620;12.188;2023-11-19T00:45:42;4.80;99.90
34829;DHT22;21042;47.620;12.188;2023-11-19T00:48:10;4.80;99.90
34829;DHT22;21042;47.620;12.188;2023-11-19T00:50:37;4.80;99.90
34829;DHT22;21042;47.620;12.188;2023-11-19T00:53:06;4.80;99.90
34829;DHT22;21042;47.620;12.188;2023-11-19T00:55:32;4.70;99.90
34829;DHT22;21042;47.620;12.188;2023-11-19T00:57:59;4.80;99.90
34829;DHT22;21042;47.620;12.188;2023-11-19T01:00:26;4.70;99.90
34829;DHT22;21042;47.620;12.188;2023-11-19T01:02:54;4.70;99.90
34829;DHT22;21042;47.620;12.188;2023-11-19T01:05:21;4.70;99.90
34829;DHT22;21042;47.620;12.188;2023-11-19T01:07:50;4.80;99.90
34829;DHT22;21042;47.620;12.188;2023-11-19T01:10:20;4.80;99.90
34829;DHT22;21042;47.620;12.188;2023-11-19T01:12:47;4.80;99.90
34829;DHT22;21042;47.620;12.188;2023-11-19T01:15:14;4.80;99.90
34829;DHT22;21042;47.620;12.188;2023-11-19T01:17:40;4.70;99.90
34829;DHT22;21042;47.620;12.188;2023-11-19T01:20:19;4.80;99.90
34829;DHT22;21042;47.620;12.188;2023-11-19T01:22:47;4.80;99.90
34829;DHT22;21042;47.620;12.188;2023-11-19T01:25:16;4.80;99.90
34829;DHT22;21042;47.620;12.188;2023-11-19T01:27:44;4.80;99.90
34829;DHT22;21042;47.620;12.188;2023-11-19T01:30:11;4.80;99.90
34829;DHT22;21042;47.620;12.188;2023-11-19T01:32:40;4.80;99.90
34829;DHT22;21042;47.620;12.188;2023-11-19T01:35:07;4.80;99.90
34829;DHT22;21042;47.620;12.188;2023-11-19T01:37:37;4.80;99.90
34829;DHT22;21042;47.620;12.188;2023-11-19T01:40:04;4.80;99.90
34829;DHT22;21042;47.620;12.188;2023-11-19T01:42:40;4.80;99.90
34829;DHT22;21042;47.620;12.188;2023-11-19T01:45:07;4.80;99.90
34829;DHT22;21042;47.620;12.188;2023-11-19T01:47:36;4.80;99.90
34829;DHT22;21042;47.620;12.188;2023-11-19T01:50:04;4.80;99.90
34829;DHT22;21042;47.620;12.188;2023-11-19T01:52:34;4.80;99.90
34829;DHT22;21042;47.620;12.188;2023-11-19T01:55:04;4.80;99.90
34829;DHT22;21042;47.620;12.188;2023-11-19T01:57:31;4.90;99.90
34829;DHT22;21042;47.620;12.188;2023-11-19T01:59:58;4.80;99.90
34829;DHT22;21042;47.620;12.188;2023-11-19T02:02:25;4.80;99.90
34829;DHT22;21042;47.620;12.188;2023-11-19T02:04:53;4.90;99.90
34829;DHT22;21042;47.620;12.188;2023-11-19T02:07:20;4.90;99.90
34829;DHT22;21042;47.620;12.188;2023-11-19T02:09:47;4.80;99.90
34829;DHT22;21042;47.620;12.188;2023-11-19T02:12:14;4.80;99.90
34829;DHT22;21042;47.620;12.188;2023-11-19T02:14:41;4.80;99.90
34829;DHT22;21042;47.620;12.188;2023-11-19T02:17:30;4.80;99.90
34829;DHT22;21042;47.620;12.188;2023-11-19T02:20:05;4.80;99.90
34829;DHT22;21042;47.620;12.188;2023-11-19T02:22:38;4.70;99.90
34829;DHT22;21042;47.620;12.188;2023-11-19T02:25:07;4.70;99.90
34829;DHT22;21042;47.620;12.188;2023-11-19T02:27:55;4.60;99.90
34829;DHT22;21042;47.620;12.188;2023-11-19T02:30:23;4.70;99.90
34829;DHT22;21042;47.620;12.188;2023-11-19T02:32:58;4.70;99.90
34829;DHT22;21042;47.620;12.188;2023-11-19T02:35:25;4.70;99.90
34829;DHT22;21042;47.620;12.188;2023-11-19T02:37:56;4.70;99.90
34829;DHT22;21042;47.620;12.188;2023-11-19T02:40:23;4.60;99.90
34829;DHT22;21042;47.620;12.188;2023-11-19T02:42:53;4.70;99.90
34829;DHT22;21042;47.620;12.188;2023-11-19T02:45:25;4.60;99.90
34829;DHT22;21042;47.620;12.188;2023-11-19T02:47:53;4.50;99.90
34829;DHT22;21042;47.620;12.188;2023-11-19T02:50:21;4.50;99.90
34829;DHT22;21042;47.620;12.188;2023-11-19T02:52:56;4.40;99.90
34829;DHT22;21042;47.620;12.188;2023-11-19T02:55:24;4.30;99.90
34829;DHT22;21042;47.620;12.188;2023-11-19T02:57:52;4.30;99.90
34829;DHT22;21042;47.620;12.188;2023-11-19T03:00:21;4.30;99.90
34829;DHT22;21042;47.620;12.188;2023-11-19T03:02:57;4.30;99.90
34829;DHT22;21042;47.620;12.188;2023-11-19T03:05:37;4.30;99.90
34829;DHT22;21042;47.620;12.188;2023-11-19T03:08:04;4.40;99.90
34829;DHT22;21042;47.620;12.188;2023-11-19T03:10:31;4.40;99.90
34829;DHT22;21042;47.620;12.188;2023-11-19T03:12:57;4.40;99.90
34829;DHT22;21042;47.620;12.188;2023-11-19T03:15:26;4.40;99.90
34829;DHT22;21042;47.620;12.188;2023-11-19T03:17:52;4.40;99.90
34829;DHT22;21042;47.620;12.188;2023-11-19T03:20:19;4.40;99.90
34829;DHT22;21042;47.620;12.188;2023-11-19T03:22:47;4.40;99.90
34829;DHT22;21042;47.620;12.188;2023-11-19T03:25:14;4.40;99.90
34829;DHT22;21042;47.620;12.188;2023-11-19T03:27:41;4.40;99.90
34829;DHT22;21042;47.620;12.188;2023-11-19T03:30:10;4.40;99.90
34829;DHT22;21042;47.620;12.188;2023-11-19T03:32:38;4.40;99.90
34829;DHT22;21042;47.620;12.188;2023-11-19T03:35:06;4.40;99.90
34829;DHT22;21042;47.620;12.188;2023-11-19T03:37:36;4.40;99.90
34829;DHT22;21042;47.620;12.188;2023-11-19T03:40:03;4.40;99.90
34829;DHT22;21042;47.620;12.188;2023-11-19T03:42:31;4.40;99.90
34829;DHT22;21042;47.620;12.188;2023-11-19T03:44:58;4.50;99.90
34829;DHT22;21042;47.620;12.188;2023-11-19T03:47:25;4.40;99.90
34829;DHT22;21042;47.620;12.188;2023-11-19T03:49:52;4.50;99.90
34829;DHT22;21042;47.620;12.188;2023-11-19T03:52:19;4.50;99.90
34829;DHT22;21042;47.620;12.188;2023-11-19T03:54:47;4.50;99.90
34829;DHT22;21042;47.620;12.188;2023-11-19T03:57:13;4.50;99.90
34829;DHT22;21042;47.620;12.188;2023-11-19T03:59:42;4.50;99.90
34829;DHT22;21042;47.620;12.188;2023-11-19T04:02:09;4.50;99.90
34829;DHT22;21042;47.620;12.188;2023-11-19T04:04:36;4.50;99.90
34829;DHT22;21042;47.620;12.188;2023-11-19T04:07:05;4.60;99.90
34829;DHT22;21042;47.620;12.188;2023-11-19T04:09:32;4.60;99.90
34829;DHT22;21042;47.620;12.188;2023-11-19T04:12:04;4.60;99.90
34829;DHT22;21042;47.620;12.188;2023-11-19T04:14:31;4.60;99.90
34829;DHT22;21042;47.620;12.188;2023-11-19T04:16:57;4.60;99.90
34829;DHT22;21042;47.620;12.188;2023-11-19T04:19:24;4.70;99.90
34829;DHT22;21042;47.620;12.188;2023-11-19T04:21:51;4.70;99.90
34829;DHT22;21042;47.620;12.188;2023-11-19T04:24:18;4.70;99.90
34829;DHT22;21042;47.620;12.188;2023-11-19T04:26:45;4.70;99.90
34829;DHT22;21042;47.620;12.188;2023-11-19T04:29:13;4.70;99.90
34829;DHT22;21042;47.620;12.188;2023-11-19T04:31:41;4.70;99.90
34829;DHT22;21042;47.620;12.188;2023-11-19T04:34:08;4.80;99.90
34829;DHT22;21042;47.620;12.188;2023-11-19T04:36:35;4.80;99.90
34829;DHT22;21042;47.620;12.188;2023-11-19T04:39:04;4.80;99.90
34829;DHT22;21042;47.620;12.188;2023-11-19T04:41:36;4.80;99.90
34829;DHT22;21042;47.620;12.188;2023-11-19T04:44:03;4.80;99.90
34829;DHT22;21042;47.620;12.188;2023-11-19T04:46:29;4.90;99.90
34829;DHT22;21042;47.620;12.188;2023-11-19T04:48:56;4.90;99.90
34829;DHT22;21042;47.620;12.188;2023-11-19T04:51:23;4.90;99.90
34829;DHT22;21042;47.620;12.188;2023-11-19T04:53:50;4.90;99.90
34829;DHT22;21042;47.620;12.188;2023-11-19T04:56:17;4.90;99.90
34829;DHT22;21042;47.620;12.188;2023-11-19T04:58:46;4.90;99.90
34829;DHT22;21042;47.620;12.188;2023-11-19T05:01:15;4.90;99.90
34829;DHT22;21042;47.620;12.188;2023-11-19T05:03:43;4.90;99.90
34829;DHT22;21042;47.620;12.188;2023-11-19T05:06:10;5.00;99.90
34829;DHT22;21042;47.620;12.188;2023-11-19T05:08:37;5.00;99.90
34829;DHT22;21042;47.620;12.188;2023-11-19T05:11:04;5.00;99.90
34829;DHT22;21042;47.620;12.188;2023-11-19T05:13:32;5.00;99.90
34829;DHT22;21042;47.620;12.188;2023-11-19T05:15:59;5.00;99.90
34829;DHT22;21042;47.620;12.188;2023-11-19T05:18:26;5.10;99.90
34829;DHT22;21042;47.620;12.188;2023-11-19T05:20:53;5.10;99.90
34829;DHT22;21042;47.620;12.188;2023-11-19T05:23:19;5.10;99.90
34829;DHT22;21042;47.620;12.188;2023-11-19T05:25:47;5.10;99.90
34829;DHT22;21042;47.620;12.188;2023-11-19T05:28:14;5.10;99.90
34829;DHT22;21042;47.620;12.188;2023-11-19T05:30:41;5.10;99.90
34829;DHT22;21042;47.620;12.188;2023-11-19T05:33:08;5.10;99.90
34829;DHT22;21042;47.620;12.188;2023-11-19T05:35:35;5.10;99.90
34829;DHT22;21042;47.620;12.188;2023-11-19T05:38:02;5.10;99.90
34829;DHT22;21042;47.620;12.188;2023-11-19T05:40:29;5.10;99.90
34829;DHT22;21042;47.620;12.188;2023-11-19T05:42:56;5.10;99.90
34829;DHT22;21042;47.620;12.188;2023-11-19T05:45:22;5.10;99.90
34829;DHT22;21042;47.620;12.188;2023-11-19T05:47:49;5.10;99.90
34829;DHT22;21042;47.620;12.188;2023-11-19T05:50:18;5.10;99.90
34829;DHT22;21042;47.620;12.188;2023-11-19T05:52:46;5.10;99.90
34829;DHT22;21042;47.620;12.188;2023-11-19T05:55:12;5.10;99.90
34829;DHT22;21042;47.620;12.188;2023-11-19T05:57:40;5.10;99.90
34829;DHT22;21042;47.620;12.188;2023-11-19T06:00:11;5.10;99.90
34829;DHT22;21042;47.620;12.188;2023-11-19T06:02:39;5.10;99.90
34829;DHT22;21042;47.620;12.188;2023-11-19T06:05:06;5.10;99.90
34829;DHT22;21042;47.620;12.188;2023-11-19T06:07:33;5.00;99.90
34829;DHT22;21042;47.620;12.188;2023-11-19T06:10:01;5.10;99.90
34829;DHT22;21042;47.620;12.188;2023-11-19T06:12:28;5.10;99.90
34829;DHT22;21042;47.620;12.188;2023-11-19T06:14:54;5.10;99.90
34829;DHT22;21042;47.620;12.188;2023-11-19T06:17:21;5.20;99.90
34829;DHT22;21042;47.620;12.188;2023-11-19T06:19:48;5.20;99.90
34829;DHT22;21042;47.620;12.188;2023-11-19T06:22:15;5.10;99.90
34829;DHT22;21042;47.620;12.188;2023-11-19T06:24:42;5.10;99.90
34829;DHT22;21042;47.620;12.188;2023-11-19T06:27:09;5.10;99.90
34829;DHT22;21042;47.620;12.188;2023-11-19T06:29:36;5.10;99.90
34829;DHT22;21042;47.620;12.188;2023-11-19T06:32:03;5.10;99.90
34829;DHT22;21042;47.620;12.188;2023-11-19T06:34:41;5.10;99.90
34829;DHT22;21042;47.620;12.188;2023-11-19T06:37:08;5.10;99.90
34829;DHT22;21042;47.620;12.188;2023-11-19T06:39:36;5.20;99.90
34829;DHT22;21042;47.620;12.188;2023-11-19T06:42:03;5.20;99.90
34829;DHT22;21042;47.620;12.188;2023-11-19T06:44:30;5.20;99.90
34829;DHT22;21042;47.620;12.188;2023-11-19T06:46:57;5.20;99.90
34829;DHT22;21042;47.620;12.188;2023-11-19T06:49:24;5.20;99.90
34829;DHT22;21042;47.620;12.188;2023-11-19T06:51:51;5.20;99.90
34829;DHT22;21042;47.620;12.188;2023-11-19T06:54:18;5.20;99.90
34829;DHT22;21042;47.620;12.188;2023-11-19T06:56:44;5.20;99.90
34829;DHT22;21042;47.620;12.188;2023-11-19T06:59:14;5.30;99.90
34829;DHT22;21042;47.620;12.188;2023-11-19T07:01:41;5.30;99.90
34829;DHT22;21042;47.620;12.188;2023-11-19T07:04:11;5.30;99.90
34829;DHT22;21042;47.620;12.188;2023-11-19T07:06:39;5.30;99.90
34829;DHT22;21042;47.620;12.188;2023-11-19T07:09:09;5.30;99.90
34829;DHT22;21042;47.620;12.188;2023-11-19T07:11:41;5.40;99.90
34829;DHT22;21042;47.620;12.188;2023-11-19T07:14:08;5.40;99.90
34829;DHT22;21042;47.620;12.188;2023-11-19T07:16:35;5.40;99.90
34829;DHT22;21042;47.620;12.188;2023-11-19T07:19:08;5.50;99.90
34829;DHT22;21042;47.620;12.188;2023-11-19T07:21:36;5.50;99.90
34829;DHT22;21042;47.620;12.188;2023-11-19T07:24:06;5.50;99.90
34829;DHT22;21042;47.620;12.188;2023-11-19T07:26:33;5.50;99.90
34829;DHT22;21042;47.620;12.188;2023-11-19T07:29:00;5.50;99.90
34829;DHT22;21042;47.620;12.188;2023-11-19T07:31:28;5.50;99.90
34829;DHT22;21042;47.620;12.188;2023-11-19T07:33:55;5.50;99.90
34829;DHT22;21042;47.620;12.188;2023-11-19T07:36:21;5.50;99.90
34829;DHT22;21042;47.620;12.188;2023-11-19T07:38:48;5.60;99.90
34829;DHT22;21042;47.620;12.188;2023-11-19T07:41:15;5.60;99.90
34829;DHT22;21042;47.620;12.188;2023-11-19T07:43:45;5.60;99.90
34829;DHT22;21042;47.620;12.188;2023-11-19T07:46:13;5.60;99.90
34829;DHT22;21042;47.620;12.188;2023-11-19T07:48:40;5.60;99.90
34829;DHT22;21042;47.620;12.188;2023-11-19T07:51:10;5.60;99.90
34829;DHT22;21042;47.620;12.188;2023-11-19T07:53:38;5.60;99.90
34829;DHT22;21042;47.620;12.188;2023-11-19T07:56:05;5.70;99.90
34829;DHT22;21042;47.620;12.188;2023-11-19T07:58:32;5.60;99.90
34829;DHT22;21042;47.620;12.188;2023-11-19T08:00:59;5.70;99.90
34829;DHT22;21042;47.620;12.188;2023-11-19T08:03:26;5.70;99.90
34829;DHT22;21042;47.620;12.188;2023-11-19T08:05:55;5.70;99.90
34829;DHT22;21042;47.620;12.188;2023-11-19T08:08:23;5.70;99.90
34829;DHT22;21042;47.620;12.188;2023-11-19T08:10:50;5.70;99.90
34829;DHT22;21042;47.620;12.188;2023-11-19T08:13:18;5.70;99.90
34829;DHT22;21042;47.620;12.188;2023-11-19T08:15:47;5.80;99.90
34829;DHT22;21042;47.620;12.188;2023-11-19T08:18:14;5.80;99.90
34829;DHT22;21042;47.620;12.188;2023-11-19T08:20:41;5.80;99.90
34829;DHT22;21042;47.620;12.188;2023-11-19T08:23:09;5.90;99.90
34829;DHT22;21042;47.620;12.188;2023-11-19T08:25:36;5.90;99.90
34829;DHT22;21042;47.620;12.188;2023-11-19T08:28:03;5.90;99.90
34829;DHT22;21042;47.620;12.188;2023-11-19T08:30:30;6.00;99.90
34829;DHT22;21042;47.620;12.188;2023-11-19T08:32:57;5.90;99.90
34829;DHT22;21042;47.620;12.188;2023-11-19T08:35:25;5.90;99.90
34829;DHT22;21042;47.620;12.188;2023-11-19T08:37:52;6.00;99.90
34829;DHT22;21042;47.620;12.188;2023-11-19T08:40:19;6.00;99.90
34829;DHT22;21042;47.620;12.188;2023-11-19T08:42:46;5.90;99.90
34829;DHT22;21042;47.620;12.188;2023-11-19T08:45:13;6.00;99.90
34829;DHT22;21042;47.620;12.188;2023-11-19T08:47:40;6.00;99.90
34829;DHT22;21042;47.620;12.188;2023-11-19T08:50:07;6.00;99.90
34829;DHT22;21042;47.620;12.188;2023-11-19T08:52:35;6.00;99.90
34829;DHT22;21042;47.620;12.188;2023-11-19T08:55:02;6.00;99.90
34829;DHT22;21042;47.620;12.188;2023-11-19T08:57:29;6.00;99.90
34829;DHT22;21042;47.620;12.188;2023-11-19T08:59:56;6.00;99.90
34829;DHT22;21042;47.620;12.188;2023-11-19T09:02:23;6.00;99.90
34829;DHT22;21042;47.620;12.188;2023-11-19T09:04:50;6.10;99.90
34829;DHT22;21042;47.620;12.188;2023-11-19T09:07:20;6.10;99.90
34829;DHT22;21042;47.620;12.188;2023-11-19T09:09:47;6.20;99.90
34829;DHT22;21042;47.620;12.188;2023-11-19T09:12:14;6.20;99.90
34829;DHT22;21042;47.620;12.188;2023-11-19T09:14:41;6.30;99.90
34829;DHT22;21042;47.620;12.188;2023-11-19T09:17:08;6.40;99.90
34829;DHT22;21042;47.620;12.188;2023-11-19T09:19:36;6.40;99.90
34829;DHT22;21042;47.620;12.188;2023-11-19T09:22:03;6.40;99.90
34829;DHT22;21042;47.620;12.188;2023-11-19T09:24:30;6.40;99.90
34829;DHT22;21042;47.620;12.188;2023-11-19T09:26:57;6.30;99.90
34829;DHT22;21042;47.620;12.188;2023-11-19T09:29:23;6.40;99.90
34829;DHT22;21042;47.620;12.188;2023-11-19T09:31:50;6.30;99.90
34829;DHT22;21042;47.620;12.188;2023-11-19T09:34:17;6.40;99.90
34829;DHT22;21042;47.620;12.188;2023-11-19T09:36:44;6.40;99.90
34829;DHT22;21042;47.620;12.188;2023-11-19T09:39:11;6.50;99.90
34829;DHT22;21042;47.620;12.188;2023-11-19T09:41:41;6.50;99.90
34829;DHT22;21042;47.620;12.188;2023-11-19T09:44:08;6.60;99.90
34829;DHT22;21042;47.620;12.188;2023-11-19T09:46:36;6.70;99.90
34829;DHT22;21042;47.620;12.188;2023-11-19T09:49:04;6.70;99.90
34829;DHT22;21042;47.620;12.188;2023-11-19T09:51:31;6.70;99.90
34829;DHT22;21042;47.620;12.188;2023-11-19T09:53:58;6.90;99.90
34829;DHT22;21042;47.620;12.188;2023-11-19T09:56:25;6.90;99.90
34829;DHT22;21042;47.620;12.188;2023-11-19T09:58:53;6.90;99.90
34829;DHT22;21042;47.620;12.188;2023-11-19T10:01:20;7.00;99.90
34829;DHT22;21042;47.620;12.188;2023-11-19T10:03:55;7.20;99.90
34829;DHT22;21042;47.620;12.188;2023-11-19T10:06:23;7.20;99.90
34829;DHT22;21042;47.620;12.188;2023-11-19T10:08:51;7.20;99.90
34829;DHT22;21042;47.620;12.188;2023-11-19T10:11:18;7.30;99.90
34829;DHT22;21042;47.620;12.188;2023-11-19T10:13:45;7.30;99.90
34829;DHT22;21042;47.620;12.188;2023-11-19T10:16:15;7.30;99.90
34829;DHT22;21042;47.620;12.188;2023-11-19T10:18:45;7.30;99.90
34829;DHT22;21042;47.620;12.188;2023-11-19T10:21:13;7.30;99.90
34829;DHT22;21042;47.620;12.188;2023-11-19T10:23:55;7.30;99.90
34829;DHT22;21042;47.620;12.188;2023-11-19T10:26:24;7.30;99.90
34829;DHT22;21042;47.620;12.188;2023-11-19T10:28:50;7.20;99.90
34829;DHT22;21042;47.620;12.188;2023-11-19T10:31:20;7.20;99.90
34829;DHT22;21042;47.620;12.188;2023-11-19T10:33:51;7.30;99.90
34829;DHT22;21042;47.620;12.188;2023-11-19T10:36:18;7.40;99.90
34829;DHT22;21042;47.620;12.188;2023-11-19T10:38:53;7.40;99.90
34829;DHT22;21042;47.620;12.188;2023-11-19T10:41:30;7.40;99.90
34829;DHT22;21042;47.620;12.188;2023-11-19T10:44:00;7.40;99.90
34829;DHT22;21042;47.620;12.188;2023-11-19T10:46:39;7.40;99.90
34829;DHT22;21042;47.620;12.188;2023-11-19T10:49:07;7.40;99.90
34829;DHT22;21042;47.620;12.188;2023-11-19T10:51:34;7.30;99.90
34829;DHT22;21042;47.620;12.188;2023-11-19T10:54:06;7.30;99.90
34829;DHT22;21042;47.620;12.188;2023-11-19T10:56:34;7.30;99.90
34829;DHT22;21042;47.620;12.188;2023-11-19T10:59:01;7.30;99.90
34829;DHT22;21042;47.620;12.188;2023-11-19T11:01:43;7.40;99.90
34829;DHT22;21042;47.620;12.188;2023-11-19T11:04:14;7.40;99.90
34829;DHT22;21042;47.620;12.188;2023-11-19T11:06:42;7.40;99.90
34829;DHT22;21042;47.620;12.188;2023-11-19T11:09:09;7.40;99.90
34829;DHT22;21042;47.620;12.188;2023-11-19T11:11:40;7.50;99.90
34829;DHT22;21042;47.620;12.188;2023-11-19T11:14:08;7.60;99.90
34829;DHT22;21042;47.620;12.188;2023-11-19T11:16:36;7.60;99.90
34829;DHT22;21042;47.620;12.188;2023-11-19T11:19:04;7.50;99.90
34829;DHT22;21042;47.620;12.188;2023-11-19T11:21:32;7.60;99.90
34829;DHT22;21042;47.620;12.188;2023-11-19T11:29:41;7.60;99.90
34829;DHT22;21042;47.620;12.188;2023-11-19T11:32:28;7.60;99.90
34829;DHT22;21042;47.620;12.188;2023-11-19T11:35:28;7.60;99.90
34829;DHT22;21042;47.620;12.188;2023-11-19T11:38:00;7.70;99.90
34829;DHT22;21042;47.620;12.188;2023-11-19T11:40:28;7.80;99.90
34829;DHT22;21042;47.620;12.188;2023-11-19T11:42:55;7.80;99.90
34829;DHT22;21042;47.620;12.188;2023-11-19T11:45:36;7.80;99.90
34829;DHT22;21042;47.620;12.188;2023-11-19T11:48:15;7.90;99.90
34829;DHT22;21042;47.620;12.188;2023-11-19T11:50:53;7.70;99.90
34829;DHT22;21042;47.620;12.188;2023-11-19T11:53:22;7.70;99.90
34829;DHT22;21042;47.620;12.188;2023-11-19T11:58:18;7.80;99.90
34829;DHT22;21042;47.620;12.188;2023-11-19T12:00:47;7.70;99.90
34829;DHT22;21042;47.620;12.188;2023-11-19T12:03:14;7.80;99.90
34829;DHT22;21042;47.620;12.188;2023-11-19T12:05:41;7.90;99.90
34829;DHT22;21042;47.620;12.188;2023-11-19T12:08:12;8.00;99.90
34829;DHT22;21042;47.620;12.188;2023-11-19T12:10:51;8.10;99.90
34829;DHT22;21042;47.620;12.188;2023-11-19T12:13:20;8.10;99.90
34829;DHT22;21042;47.620;12.188;2023-11-19T12:18:30;8.10;99.90
34829;DHT22;21042;47.620;12.188;2023-11-19T12:21:00;8.10;99.90
34829;DHT22;21042;47.620;12.188;2023-11-19T12:23:31;8.10;99.90
34829;DHT22;21042;47.620;12.188;2023-11-19T12:25:59;8.20;99.90
34829;DHT22;21042;47.620;12.188;2023-11-19T12:28:26;8.20;99.90
34829;DHT22;21042;47.620;12.188;2023-11-19T12:30:54;8.20;99.90
34829;DHT22;21042;47.620;12.188;2023-11-19T12:33:35;8.30;99.90
34829;DHT22;21042;47.620;12.188;2023-11-19T12:36:02;8.20;99.90
34829;DHT22;21042;47.620;12.188;2023-11-19T12:38:31;8.20;99.90
34829;DHT22;21042;47.620;12.188;2023-11-19T12:41:08;8.20;99.90
34829;DHT22;21042;47.620;12.188;2023-11-19T12:43:38;8.20;99.90
34829;DHT22;21042;47.620;12.188;2023-11-19T12:46:17;8.20;99.90
34829;DHT22;21042;47.620;12.188;2023-11-19T12:48:50;8.10;99.90
34829;DHT22;21042;47.620;12.188;2023-11-19T12:51:17;8.10;99.90
34829;DHT22;21042;47.620;12.188;2023-11-19T12:53:53;8.10;99.90
34829;DHT22;21042;47.620;12.188;2023-11-19T12:56:25;8.10;99.90
34829;DHT22;21042;47.620;12.188;2023-11-19T12:58:51;8.00;99.90
34829;DHT22;21042;47.620;12.188;2023-11-19T13:01:20;8.10;99.90
34829;DHT22;21042;47.620;12.188;2023-11-19T13:03:48;8.10;99.90
34829;DHT22;21042;47.620;12.188;2023-11-19T13:06:18;8.10;99.90
34829;DHT22;21042;47.620;12.188;2023-11-19T13:08:49;8.10;99.90
34829;DHT22;21042;47.620;12.188;2023-11-19T13:11:34;8.30;99.90
34829;DHT22;21042;47.620;12.188;2023-11-19T13:14:05;8.30;99.90
34829;DHT22;21042;47.620;12.188;2023-11-19T13:16:36;8.40;99.90
34829;DHT22;21042;47.620;12.188;2023-11-19T13:19:04;8.60;99.90
34829;DHT22;21042;47.620;12.188;2023-11-19T13:21:31;8.70;99.90
34829;DHT22;21042;47.620;12.188;2023-11-19T13:23:59;8.80;99.90
34829;DHT22;21042;47.620;12.188;2023-11-19T13:26:25;8.80;99.90
34829;DHT22;21042;47.620;12.188;2023-11-19T13:28:52;8.80;99.90
34829;DHT22;21042;47.620;12.188;2023-11-19T13:31:19;8.70;99.90
34829;DHT22;21042;47.620;12.188;2023-11-19T13:33:46;8.70;99.90
34829;DHT22;21042;47.620;12.188;2023-11-19T13:36:13;8.70;99.90
34829;DHT22;21042;47.620;12.188;2023-11-19T13:38:43;8.70;99.90
34829;DHT22;21042;47.620;12.188;2023-11-19T13:41:13;8.70;99.90
34829;DHT22;21042;47.620;12.188;2023-11-19T13:43:40;8.60;99.90
34829;DHT22;21042;47.620;12.188;2023-11-19T13:46:07;8.50;99.90
34829;DHT22;21042;47.620;12.188;2023-11-19T13:48:36;8.40;99.90
34829;DHT22;21042;47.620;12.188;2023-11-19T13:51:04;8.30;99.90
34829;DHT22;21042;47.620;12.188;2023-11-19T13:53:31;8.30;99.90
34829;DHT22;21042;47.620;12.188;2023-11-19T13:56:17;8.30;99.90
34829;DHT22;21042;47.620;12.188;2023-11-19T13:58:44;8.30;99.90
34829;DHT22;21042;47.620;12.188;2023-11-19T14:01:11;8.40;99.90
34829;DHT22;21042;47.620;12.188;2023-11-19T14:03:39;8.50;99.90
34829;DHT22;21042;47.620;12.188;2023-11-19T14:06:07;8.60;99.90
34829;DHT22;21042;47.620;12.188;2023-11-19T14:08:35;8.70;99.90
34829;DHT22;21042;47.620;12.188;2023-11-19T14:11:02;8.80;99.90
34829;DHT22;21042;47.620;12.188;2023-11-19T14:13:29;9.00;99.90
34829;DHT22;21042;47.620;12.188;2023-11-19T14:15:56;9.00;99.90
34829;DHT22;21042;47.620;12.188;2023-11-19T14:18:23;9.00;99.90
34829;DHT22;21042;47.620;12.188;2023-11-19T14:20:49;9.00;99.90
34829;DHT22;21042;47.620;12.188;2023-11-19T14:23:16;8.90;99.90
34829;DHT22;21042;47.620;12.188;2023-11-19T14:25:43;8.80;99.90
34829;DHT22;21042;47.620;12.188;2023-11-19T14:28:10;8.80;99.90
34829;DHT22;21042;47.620;12.188;2023-11-19T14:30:37;8.70;99.90
34829;DHT22;21042;47.620;12.188;2023-11-19T14:33:04;8.60;99.90
34829;DHT22;21042;47.620;12.188;2023-11-19T14:35:32;8.60;99.90
34829;DHT22;21042;47.620;12.188;2023-11-19T14:38:00;8.50;99.90
34829;DHT22;21042;47.620;12.188;2023-11-19T14:40:31;8.50;99.90
34829;DHT22;21042;47.620;12.188;2023-11-19T14:43:00;8.50;99.90
34829;DHT22;21042;47.620;12.188;2023-11-19T14:45:27;8.40;99.90
34829;DHT22;21042;47.620;12.188;2023-11-19T14:47:56;8.40;99.90
34829;DHT22;21042;47.620;12.188;2023-11-19T14:50:23;8.30;99.90
34829;DHT22;21042;47.620;12.188;2023-11-19T14:52:50;8.30;99.90
34829;DHT22;21042;47.620;12.188;2023-11-19T14:55:17;8.30;99.90
34829;DHT22;21042;47.620;12.188;2023-11-19T14:57:44;8.30;99.90
34829;DHT22;21042;47.620;12.188;2023-11-19T15:00:23;8.30;99.90
34829;DHT22;21042;47.620;12.188;2023-11-19T15:02:52;8.20;99.90
34829;DHT22;21042;47.620;12.188;2023-11-19T15:05:19;8.10;99.90
34829;DHT22;21042;47.620;12.188;2023-11-19T15:07:46;8.00;99.90
34829;DHT22;21042;47.620;12.188;2023-11-19T15:10:15;8.00;99.90
34829;DHT22;21042;47.620;12.188;2023-11-19T15:12:41;8.00;99.90
34829;DHT22;21042;47.620;12.188;2023-11-19T15:15:09;7.90;99.90
34829;DHT22;21042;47.620;12.188;2023-11-19T15:17:36;7.90;99.90
34829;DHT22;21042;47.620;12.188;2023-11-19T15:20:04;7.90;99.90
34829;DHT22;21042;47.620;12.188;2023-11-19T15:22:31;7.90;99.90
34829;DHT22;21042;47.620;12.188;2023-11-19T15:24:58;7.90;99.90
34829;DHT22;21042;47.620;12.188;2023-11-19T15:27:25;7.90;99.90
34829;DHT22;21042;47.620;12.188;2023-11-19T15:29:51;7.90;99.90
34829;DHT22;21042;47.620;12.188;2023-11-19T15:32:19;7.80;99.90
34829;DHT22;21042;47.620;12.188;2023-11-19T15:34:46;7.80;99.90
34829;DHT22;21042;47.620;12.188;2023-11-19T15:37:12;7.80;99.90
34829;DHT22;21042;47.620;12.188;2023-11-19T15:39:41;7.80;99.90
34829;DHT22;21042;47.620;12.188;2023-11-19T15:42:08;7.80;99.90
34829;DHT22;21042;47.620;12.188;2023-11-19T15:44:37;7.90;99.90
34829;DHT22;21042;47.620;12.188;2023-11-19T15:47:04;8.00;99.90
34829;DHT22;21042;47.620;12.188;2023-11-19T15:49:31;8.00;99.90